sensor_id;sensor_type;location;lat;lon;timestamp;temperature;humidity
46932;DHT22;32670;51.464;11.964;2023-05-10T00:00:33;23.80;54.10
46932;DHT22;32670;51.464;11.964;2023-05-10T00:02:58;23.80;54.10
46932;DHT22;32670;51.464;11.964;2023-05-10T00:05:23;23.80;54.10
46932;DHT22;32670;51.464;11.964;2023-05-10T00:07:49;23.90;54.10
46932;DHT22;32670;51.464;11.964;2023-05-10T00:10:14;23.80;54.20
46932;DHT22;32670;51.464;11.964;2023-05-10T00:12:40;23.80;54.20
46932;DHT22;32670;51.464;11.964;2023-05-10T00:15:06;23.80;54.20
46932;DHT22;32670;51.464;11.964;2023-05-10T00:17:31;23.80;54.20
46932;DHT22;32670;51.464;11.964;2023-05-10T00:19:57;23.80;54.20
46932;DHT22;32670;51.464;11.964;2023-05-10T00:22:22;23.80;54.20
46932;DHT22;32670;51.464;11.964;2023-05-10T00:24:48;23.80;54.20
46932;DHT22;32670;51.464;11.964;2023-05-10T00:27:13;23.80;54.20
46932;DHT22;32670;51.464;11.964;2023-05-10T00:29:39;23.90;54.40
46932;DHT22;32670;51.464;11.964;2023-05-10T00:32:04;23.90;54.50
46932;DHT22;32670;51.464;11.964;2023-05-10T00:34:30;23.90;54.50
46932;DHT22;32670;51.464;11.964;2023-05-10T00:36:56;23.90;54.50
46932;DHT22;32670;51.464;11.964;2023-05-10T00:39:21;23.80;54.50
46932;DHT22;32670;51.464;11.964;2023-05-10T00:41:47;23.90;54.60
46932;DHT22;32670;51.464;11.964;2023-05-10T00:44:12;23.90;54.60
46932;DHT22;32670;51.464;11.964;2023-05-10T00:46:37;23.90;54.70
46932;DHT22;32670;51.464;11.964;2023-05-10T00:49:03;23.90;54.60
46932;DHT22;32670;51.464;11.964;2023-05-10T00:51:29;23.90;54.70
46932;DHT22;32670;51.464;11.964;2023-05-10T00:53:56;23.90;54.60
46932;DHT22;32670;51.464;11.964;2023-05-10T00:56:22;23.90;54.50
46932;DHT22;32670;51.464;11.964;2023-05-10T00:58:49;23.90;54.60
46932;DHT22;32670;51.464;11.964;2023-05-10T01:01:15;23.90;54.60
46932;DHT22;32670;51.464;11.964;2023-05-10T01:03:40;23.90;54.50
46932;DHT22;32670;51.464;11.964;2023-05-10T01:06:07;23.90;54.60
46932;DHT22;32670;51.464;11.964;2023-05-10T01:08:32;23.90;54.70
46932;DHT22;32670;51.464;11.964;2023-05-10T01:10:58;23.90;54.70
46932;DHT22;32670;51.464;11.964;2023-05-10T01:13:38;23.90;54.70
46932;DHT22;32670;51.464;11.964;2023-05-10T01:16:05;23.90;54.80
46932;DHT22;32670;51.464;11.964;2023-05-10T01:18:34;23.90;54.70
46932;DHT22;32670;51.464;11.964;2023-05-10T01:27:02;23.90;55.00
46932;DHT22;32670;51.464;11.964;2023-05-10T01:29:42;23.90;55.00
46932;DHT22;32670;51.464;11.964;2023-05-10T01:32:21;23.90;54.80
46932;DHT22;32670;51.464;11.964;2023-05-10T01:35:16;24.00;55.00
46932;DHT22;32670;51.464;11.964;2023-05-10T01:37:49;23.90;55.10
46932;DHT22;32670;51.464;11.964;2023-05-10T01:42:50;23.90;55.00
46932;DHT22;32670;51.464;11.964;2023-05-10T01:45:56;23.90;55.00
46932;DHT22;32670;51.464;11.964;2023-05-10T01:48:26;23.90;55.10
46932;DHT22;32670;51.464;11.964;2023-05-10T01:50:53;23.90;54.90
46932;DHT22;32670;51.464;11.964;2023-05-10T01:53:21;23.90;55.10
46932;DHT22;32670;51.464;11.964;2023-05-10T01:55:50;23.90;55.10
46932;DHT22;32670;51.464;11.964;2023-05-10T01:58:21;23.90;55.10
46932;DHT22;32670;51.464;11.964;2023-05-10T02:00:49;24.00;55.30
46932;DHT22;32670;51.464;11.964;2023-05-10T02:03:16;24.00;55.40
46932;DHT22;32670;51.464;11.964;2023-05-10T02:05:43;24.00;55.50
46932;DHT22;32670;51.464;11.964;2023-05-10T02:08:11;24.00;55.50
46932;DHT22;32670;51.464;11.964;2023-05-10T02:10:37;24.00;55.60
46932;DHT22;32670;51.464;11.964;2023-05-10T02:13:05;24.00;55.40
46932;DHT22;32670;51.464;11.964;2023-05-10T02:15:32;24.00;55.40
46932;DHT22;32670;51.464;11.964;2023-05-10T02:18:00;24.00;55.40
46932;DHT22;32670;51.464;11.964;2023-05-10T02:20:27;24.00;55.40
46932;DHT22;32670;51.464;11.964;2023-05-10T02:22:55;24.00;55.30
46932;DHT22;32670;51.464;11.964;2023-05-10T02:25:23;24.00;55.40
46932;DHT22;32670;51.464;11.964;2023-05-10T02:27:50;24.00;55.40
46932;DHT22;32670;51.464;11.964;2023-05-10T02:30:18;24.00;55.40
46932;DHT22;32670;51.464;11.964;2023-05-10T02:32:44;24.00;55.30
46932;DHT22;32670;51.464;11.964;2023-05-10T02:35:11;24.00;55.50
46932;DHT22;32670;51.464;11.964;2023-05-10T02:37:37;24.00;55.60
46932;DHT22;32670;51.464;11.964;2023-05-10T02:40:05;24.00;55.50
46932;DHT22;32670;51.464;11.964;2023-05-10T02:42:33;24.00;55.60
46932;DHT22;32670;51.464;11.964;2023-05-10T02:45:02;24.00;55.80
46932;DHT22;32670;51.464;11.964;2023-05-10T02:47:29;24.00;55.70
46932;DHT22;32670;51.464;11.964;2023-05-10T02:49:55;24.00;55.60
46932;DHT22;32670;51.464;11.964;2023-05-10T02:52:24;24.00;55.50
46932;DHT22;32670;51.464;11.964;2023-05-10T02:54:54;24.00;55.60
46932;DHT22;32670;51.464;11.964;2023-05-10T02:57:26;24.00;55.50
46932;DHT22;32670;51.464;11.964;2023-05-10T02:59:52;24.00;55.50
46932;DHT22;32670;51.464;11.964;2023-05-10T03:02:18;24.00;55.70
46932;DHT22;32670;51.464;11.964;2023-05-10T03:04:43;24.00;55.50
46932;DHT22;32670;51.464;11.964;2023-05-10T03:07:09;24.00;55.40
46932;DHT22;32670;51.464;11.964;2023-05-10T03:09:35;24.00;55.30
46932;DHT22;32670;51.464;11.964;2023-05-10T03:12:18;24.00;55.10
46932;DHT22;32670;51.464;11.964;2023-05-10T03:15:03;24.00;55.20
46932;DHT22;32670;51.464;11.964;2023-05-10T03:20:38;24.00;55.30
46932;DHT22;32670;51.464;11.964;2023-05-10T03:23:27;24.00;55.40
46932;DHT22;32670;51.464;11.964;2023-05-10T03:25:55;24.00;55.40
46932;DHT22;32670;51.464;11.964;2023-05-10T03:28:21;24.00;55.40
46932;DHT22;32670;51.464;11.964;2023-05-10T03:30:47;24.00;55.40
46932;DHT22;32670;51.464;11.964;2023-05-10T03:33:14;24.10;55.50
46932;DHT22;32670;51.464;11.964;2023-05-10T03:35:39;24.00;55.40
46932;DHT22;32670;51.464;11.964;2023-05-10T03:38:05;24.00;55.50
46932;DHT22;32670;51.464;11.964;2023-05-10T03:40:30;24.00;55.60
46932;DHT22;32670;51.464;11.964;2023-05-10T03:42:58;24.00;55.70
46932;DHT22;32670;51.464;11.964;2023-05-10T03:45:23;24.00;55.70
46932;DHT22;32670;51.464;11.964;2023-05-10T03:47:49;24.10;55.70
46932;DHT22;32670;51.464;11.964;2023-05-10T03:50:14;24.00;55.70
46932;DHT22;32670;51.464;11.964;2023-05-10T03:52:40;24.10;55.80
46932;DHT22;32670;51.464;11.964;2023-05-10T03:55:06;24.10;55.60
46932;DHT22;32670;51.464;11.964;2023-05-10T03:57:32;24.00;55.60
46932;DHT22;32670;51.464;11.964;2023-05-10T03:59:57;24.00;55.60
46932;DHT22;32670;51.464;11.964;2023-05-10T04:02:23;24.00;55.80
46932;DHT22;32670;51.464;11.964;2023-05-10T04:04:48;24.10;55.70
46932;DHT22;32670;51.464;11.964;2023-05-10T04:07:14;24.00;55.90
46932;DHT22;32670;51.464;11.964;2023-05-10T04:09:39;24.10;55.90
46932;DHT22;32670;51.464;11.964;2023-05-10T04:12:05;24.10;55.90
46932;DHT22;32670;51.464;11.964;2023-05-10T04:14:31;24.10;55.90
46932;DHT22;32670;51.464;11.964;2023-05-10T04:16:56;24.10;56.10
46932;DHT22;32670;51.464;11.964;2023-05-10T04:19:22;24.10;56.00
46932;DHT22;32670;51.464;11.964;2023-05-10T04:21:47;24.10;56.10
46932;DHT22;32670;51.464;11.964;2023-05-10T04:24:13;24.10;56.00
46932;DHT22;32670;51.464;11.964;2023-05-10T04:26:38;24.10;56.10
46932;DHT22;32670;51.464;11.964;2023-05-10T04:29:04;24.10;56.00
46932;DHT22;32670;51.464;11.964;2023-05-10T04:31:29;24.10;56.10
46932;DHT22;32670;51.464;11.964;2023-05-10T04:33:55;24.10;56.00
46932;DHT22;32670;51.464;11.964;2023-05-10T04:36:20;24.00;56.10
46932;DHT22;32670;51.464;11.964;2023-05-10T04:38:46;24.10;56.20
46932;DHT22;32670;51.464;11.964;2023-05-10T04:41:11;24.10;56.20
46932;DHT22;32670;51.464;11.964;2023-05-10T04:43:38;24.10;56.20
46932;DHT22;32670;51.464;11.964;2023-05-10T04:46:04;24.10;56.20
46932;DHT22;32670;51.464;11.964;2023-05-10T04:48:30;24.10;56.30
46932;DHT22;32670;51.464;11.964;2023-05-10T04:50:55;24.10;56.20
46932;DHT22;32670;51.464;11.964;2023-05-10T04:53:21;24.10;56.30
46932;DHT22;32670;51.464;11.964;2023-05-10T04:55:47;24.10;56.40
46932;DHT22;32670;51.464;11.964;2023-05-10T04:58:13;24.10;56.50
46932;DHT22;32670;51.464;11.964;2023-05-10T05:00:38;24.10;56.60
46932;DHT22;32670;51.464;11.964;2023-05-10T05:03:04;24.10;56.60
46932;DHT22;32670;51.464;11.964;2023-05-10T05:05:30;24.10;56.60
46932;DHT22;32670;51.464;11.964;2023-05-10T05:07:55;24.20;57.10
46932;DHT22;32670;51.464;11.964;2023-05-10T05:10:21;24.10;56.80
46932;DHT22;32670;51.464;11.964;2023-05-10T05:12:46;24.20;56.70
46932;DHT22;32670;51.464;11.964;2023-05-10T05:15:12;24.20;56.60
46932;DHT22;32670;51.464;11.964;2023-05-10T05:17:37;24.20;56.50
46932;DHT22;32670;51.464;11.964;2023-05-10T05:20:03;24.00;49.50
46932;DHT22;32670;51.464;11.964;2023-05-10T05:22:29;23.90;47.20
46932;DHT22;32670;51.464;11.964;2023-05-10T05:24:55;23.70;44.70
46932;DHT22;32670;51.464;11.964;2023-05-10T05:27:21;23.50;44.60
46932;DHT22;32670;51.464;11.964;2023-05-10T05:29:50;23.40;44.60
46932;DHT22;32670;51.464;11.964;2023-05-10T05:32:16;23.30;43.50
46932;DHT22;32670;51.464;11.964;2023-05-10T05:34:41;23.30;42.70
46932;DHT22;32670;51.464;11.964;2023-05-10T05:37:07;23.20;42.10
46932;DHT22;32670;51.464;11.964;2023-05-10T05:39:32;23.10;41.30
46932;DHT22;32670;51.464;11.964;2023-05-10T05:41:58;23.00;41.20
46932;DHT22;32670;51.464;11.964;2023-05-10T05:44:23;23.00;41.20
46932;DHT22;32670;51.464;11.964;2023-05-10T05:46:49;22.90;41.20
46932;DHT22;32670;51.464;11.964;2023-05-10T05:49:14;22.80;41.30
46932;DHT22;32670;51.464;11.964;2023-05-10T05:51:40;22.80;41.20
46932;DHT22;32670;51.464;11.964;2023-05-10T05:54:05;22.80;41.50
46932;DHT22;32670;51.464;11.964;2023-05-10T05:56:31;22.80;41.30
46932;DHT22;32670;51.464;11.964;2023-05-10T05:58:57;22.70;41.40
46932;DHT22;32670;51.464;11.964;2023-05-10T06:01:22;22.70;41.10
46932;DHT22;32670;51.464;11.964;2023-05-10T06:03:47;22.70;41.00
46932;DHT22;32670;51.464;11.964;2023-05-10T06:06:13;22.70;41.70
46932;DHT22;32670;51.464;11.964;2023-05-10T06:08:38;22.70;41.70
46932;DHT22;32670;51.464;11.964;2023-05-10T06:11:04;22.70;41.80
46932;DHT22;32670;51.464;11.964;2023-05-10T06:13:29;22.70;42.40
46932;DHT22;32670;51.464;11.964;2023-05-10T06:15:58;22.70;42.70
46932;DHT22;32670;51.464;11.964;2023-05-10T06:18:23;22.70;43.80
46932;DHT22;32670;51.464;11.964;2023-05-10T06:20:49;22.70;42.40
46932;DHT22;32670;51.464;11.964;2023-05-10T06:23:15;22.70;41.90
46932;DHT22;32670;51.464;11.964;2023-05-10T06:25:41;22.70;41.60
46932;DHT22;32670;51.464;11.964;2023-05-10T06:28:06;22.70;41.60
46932;DHT22;32670;51.464;11.964;2023-05-10T06:30:31;22.70;41.50
46932;DHT22;32670;51.464;11.964;2023-05-10T06:32:57;22.60;41.20
46932;DHT22;32670;51.464;11.964;2023-05-10T06:35:22;22.60;41.30
46932;DHT22;32670;51.464;11.964;2023-05-10T06:37:48;22.50;41.40
46932;DHT22;32670;51.464;11.964;2023-05-10T06:40:14;22.60;42.30
46932;DHT22;32670;51.464;11.964;2023-05-10T06:42:39;22.60;42.70
46932;DHT22;32670;51.464;11.964;2023-05-10T06:45:05;22.70;43.00
46932;DHT22;32670;51.464;11.964;2023-05-10T06:47:31;22.70;43.10
46932;DHT22;32670;51.464;11.964;2023-05-10T06:49:57;22.80;43.20
46932;DHT22;32670;51.464;11.964;2023-05-10T06:52:22;22.80;43.30
46932;DHT22;32670;51.464;11.964;2023-05-10T06:54:48;22.80;43.30
46932;DHT22;32670;51.464;11.964;2023-05-10T06:57:14;22.90;43.60
46932;DHT22;32670;51.464;11.964;2023-05-10T06:59:39;22.90;43.70
46932;DHT22;32670;51.464;11.964;2023-05-10T07:02:05;22.90;43.90
46932;DHT22;32670;51.464;11.964;2023-05-10T07:04:31;22.90;44.00
46932;DHT22;32670;51.464;11.964;2023-05-10T07:06:56;22.90;44.20
46932;DHT22;32670;51.464;11.964;2023-05-10T07:09:22;23.00;44.70
46932;DHT22;32670;51.464;11.964;2023-05-10T07:11:49;23.00;44.00
46932;DHT22;32670;51.464;11.964;2023-05-10T07:14:15;23.00;44.10
46932;DHT22;32670;51.464;11.964;2023-05-10T07:16:40;23.00;44.30
46932;DHT22;32670;51.464;11.964;2023-05-10T07:19:06;23.00;44.40
46932;DHT22;32670;51.464;11.964;2023-05-10T07:21:31;23.00;44.60
46932;DHT22;32670;51.464;11.964;2023-05-10T07:23:57;23.00;44.60
46932;DHT22;32670;51.464;11.964;2023-05-10T07:26:22;23.00;44.70
46932;DHT22;32670;51.464;11.964;2023-05-10T07:28:49;23.00;44.70
46932;DHT22;32670;51.464;11.964;2023-05-10T07:31:14;23.00;44.80
46932;DHT22;32670;51.464;11.964;2023-05-10T07:33:40;23.00;44.80
46932;DHT22;32670;51.464;11.964;2023-05-10T07:36:05;23.00;44.90
46932;DHT22;32670;51.464;11.964;2023-05-10T07:38:31;23.10;45.00
46932;DHT22;32670;51.464;11.964;2023-05-10T07:40:56;23.10;45.00
46932;DHT22;32670;51.464;11.964;2023-05-10T07:43:22;23.10;45.00
46932;DHT22;32670;51.464;11.964;2023-05-10T07:45:47;23.10;45.10
46932;DHT22;32670;51.464;11.964;2023-05-10T07:48:13;23.10;45.10
46932;DHT22;32670;51.464;11.964;2023-05-10T07:50:38;23.10;45.20
46932;DHT22;32670;51.464;11.964;2023-05-10T07:53:04;23.10;45.20
46932;DHT22;32670;51.464;11.964;2023-05-10T07:55:29;23.10;45.20
46932;DHT22;32670;51.464;11.964;2023-05-10T07:57:55;23.10;45.30
46932;DHT22;32670;51.464;11.964;2023-05-10T08:00:20;23.10;45.30
46932;DHT22;32670;51.464;11.964;2023-05-10T08:02:47;23.10;45.30
46932;DHT22;32670;51.464;11.964;2023-05-10T08:05:12;23.10;45.40
46932;DHT22;32670;51.464;11.964;2023-05-10T08:07:38;23.10;45.50
46932;DHT22;32670;51.464;11.964;2023-05-10T08:10:05;23.10;45.50
46932;DHT22;32670;51.464;11.964;2023-05-10T08:12:30;23.10;45.50
46932;DHT22;32670;51.464;11.964;2023-05-10T08:14:56;23.10;45.50
46932;DHT22;32670;51.464;11.964;2023-05-10T08:17:21;23.10;45.60
46932;DHT22;32670;51.464;11.964;2023-05-10T08:19:47;23.10;45.60
46932;DHT22;32670;51.464;11.964;2023-05-10T08:22:12;23.10;45.60
46932;DHT22;32670;51.464;11.964;2023-05-10T08:24:38;23.10;45.70
46932;DHT22;32670;51.464;11.964;2023-05-10T08:27:07;23.10;45.70
46932;DHT22;32670;51.464;11.964;2023-05-10T08:29:33;23.10;45.80
46932;DHT22;32670;51.464;11.964;2023-05-10T08:31:58;23.10;45.70
46932;DHT22;32670;51.464;11.964;2023-05-10T08:34:24;23.10;45.80
46932;DHT22;32670;51.464;11.964;2023-05-10T08:36:50;23.10;45.80
46932;DHT22;32670;51.464;11.964;2023-05-10T08:39:15;23.10;45.80
46932;DHT22;32670;51.464;11.964;2023-05-10T08:41:44;23.10;45.80
46932;DHT22;32670;51.464;11.964;2023-05-10T08:44:10;23.10;45.80
46932;DHT22;32670;51.464;11.964;2023-05-10T08:46:37;23.10;45.90
46932;DHT22;32670;51.464;11.964;2023-05-10T08:49:06;23.10;45.90
46932;DHT22;32670;51.464;11.964;2023-05-10T08:51:36;23.10;45.90
46932;DHT22;32670;51.464;11.964;2023-05-10T08:54:05;23.10;45.90
46932;DHT22;32670;51.464;11.964;2023-05-10T08:56:30;23.10;45.90
46932;DHT22;32670;51.464;11.964;2023-05-10T08:58:57;23.10;46.00
46932;DHT22;32670;51.464;11.964;2023-05-10T09:01:22;23.10;46.00
46932;DHT22;32670;51.464;11.964;2023-05-10T09:03:48;23.10;46.00
46932;DHT22;32670;51.464;11.964;2023-05-10T09:06:14;23.10;46.00
46932;DHT22;32670;51.464;11.964;2023-05-10T09:08:41;23.10;46.00
46932;DHT22;32670;51.464;11.964;2023-05-10T09:11:08;23.10;46.00
46932;DHT22;32670;51.464;11.964;2023-05-10T09:13:36;23.10;46.10
46932;DHT22;32670;51.464;11.964;2023-05-10T09:16:02;23.10;46.10
46932;DHT22;32670;51.464;11.964;2023-05-10T09:18:28;23.10;46.10
46932;DHT22;32670;51.464;11.964;2023-05-10T09:20:54;23.10;46.70
46932;DHT22;32670;51.464;11.964;2023-05-10T09:23:19;23.10;46.10
46932;DHT22;32670;51.464;11.964;2023-05-10T09:25:45;23.10;46.20
46932;DHT22;32670;51.464;11.964;2023-05-10T09:28:11;23.10;46.10
46932;DHT22;32670;51.464;11.964;2023-05-10T09:30:37;23.10;46.10
46932;DHT22;32670;51.464;11.964;2023-05-10T09:33:03;23.10;46.10
46932;DHT22;32670;51.464;11.964;2023-05-10T09:35:30;23.10;46.20
46932;DHT22;32670;51.464;11.964;2023-05-10T09:37:58;23.10;46.30
46932;DHT22;32670;51.464;11.964;2023-05-10T09:40:26;23.10;46.20
46932;DHT22;32670;51.464;11.964;2023-05-10T09:43:05;23.10;46.20
46932;DHT22;32670;51.464;11.964;2023-05-10T09:45:32;23.10;46.20
46932;DHT22;32670;51.464;11.964;2023-05-10T09:47:59;23.10;46.20
46932;DHT22;32670;51.464;11.964;2023-05-10T09:50:27;23.10;46.50
46932;DHT22;32670;51.464;11.964;2023-05-10T09:52:54;23.10;46.60
46932;DHT22;32670;51.464;11.964;2023-05-10T09:55:24;23.10;46.40
46932;DHT22;32670;51.464;11.964;2023-05-10T09:57:58;23.10;46.40
46932;DHT22;32670;51.464;11.964;2023-05-10T10:00:24;23.20;46.50
46932;DHT22;32670;51.464;11.964;2023-05-10T10:02:57;23.10;46.40
46932;DHT22;32670;51.464;11.964;2023-05-10T10:05:34;23.10;46.40
46932;DHT22;32670;51.464;11.964;2023-05-10T10:08:04;23.10;46.40
46932;DHT22;32670;51.464;11.964;2023-05-10T10:10:31;23.10;46.40
46932;DHT22;32670;51.464;11.964;2023-05-10T10:12:56;23.10;46.40
46932;DHT22;32670;51.464;11.964;2023-05-10T10:15:23;23.20;46.40
46932;DHT22;32670;51.464;11.964;2023-05-10T10:17:50;23.20;46.50
46932;DHT22;32670;51.464;11.964;2023-05-10T10:20:17;23.20;46.50
46932;DHT22;32670;51.464;11.964;2023-05-10T10:22:43;23.20;46.50
46932;DHT22;32670;51.464;11.964;2023-05-10T10:25:12;23.10;46.40
46932;DHT22;32670;51.464;11.964;2023-05-10T10:27:48;23.20;46.50
46932;DHT22;32670;51.464;11.964;2023-05-10T10:30:27;23.10;46.40
46932;DHT22;32670;51.464;11.964;2023-05-10T10:35:44;23.10;46.50
46932;DHT22;32670;51.464;11.964;2023-05-10T10:38:12;23.10;46.50
46932;DHT22;32670;51.464;11.964;2023-05-10T10:40:38;23.10;46.40
46932;DHT22;32670;51.464;11.964;2023-05-10T10:46:15;23.10;46.40
46932;DHT22;32670;51.464;11.964;2023-05-10T10:48:49;23.10;46.40
46932;DHT22;32670;51.464;11.964;2023-05-10T10:51:16;23.10;46.40
46932;DHT22;32670;51.464;11.964;2023-05-10T10:53:43;23.10;46.40
46932;DHT22;32670;51.464;11.964;2023-05-10T10:56:10;23.20;46.50
46932;DHT22;32670;51.464;11.964;2023-05-10T10:58:37;23.20;46.50
46932;DHT22;32670;51.464;11.964;2023-05-10T11:01:13;23.10;46.50
46932;DHT22;32670;51.464;11.964;2023-05-10T11:03:39;23.20;46.40
46932;DHT22;32670;51.464;11.964;2023-05-10T11:06:04;23.20;46.50
46932;DHT22;32670;51.464;11.964;2023-05-10T11:08:35;23.10;46.50
46932;DHT22;32670;51.464;11.964;2023-05-10T11:11:07;23.20;46.50
46932;DHT22;32670;51.464;11.964;2023-05-10T11:13:44;23.20;46.50
46932;DHT22;32670;51.464;11.964;2023-05-10T11:18:36;23.20;46.50
46932;DHT22;32670;51.464;11.964;2023-05-10T11:21:02;23.20;46.50
46932;DHT22;32670;51.464;11.964;2023-05-10T11:23:51;23.20;46.50
46932;DHT22;32670;51.464;11.964;2023-05-10T11:26:18;23.20;46.50
46932;DHT22;32670;51.464;11.964;2023-05-10T11:28:48;23.20;46.50
46932;DHT22;32670;51.464;11.964;2023-05-10T11:31:14;23.20;46.50
46932;DHT22;32670;51.464;11.964;2023-05-10T11:33:51;23.20;46.50
46932;DHT22;32670;51.464;11.964;2023-05-10T11:36:18;23.20;46.50
46932;DHT22;32670;51.464;11.964;2023-05-10T11:38:44;23.20;46.50
46932;DHT22;32670;51.464;11.964;2023-05-10T11:41:11;23.20;46.50
46932;DHT22;32670;51.464;11.964;2023-05-10T11:43:40;23.10;46.40
46932;DHT22;32670;51.464;11.964;2023-05-10T11:46:10;23.20;46.50
46932;DHT22;32670;51.464;11.964;2023-05-10T11:48:37;23.20;47.00
46932;DHT22;32670;51.464;11.964;2023-05-10T11:51:03;23.20;46.50
46932;DHT22;32670;51.464;11.964;2023-05-10T11:53:32;23.20;46.50
46932;DHT22;32670;51.464;11.964;2023-05-10T11:56:10;23.20;46.50
46932;DHT22;32670;51.464;11.964;2023-05-10T11:58:38;23.20;46.50
46932;DHT22;32670;51.464;11.964;2023-05-10T12:01:04;23.20;46.50
46932;DHT22;32670;51.464;11.964;2023-05-10T12:03:30;23.20;46.50
46932;DHT22;32670;51.464;11.964;2023-05-10T12:05:56;23.20;46.50
46932;DHT22;32670;51.464;11.964;2023-05-10T12:08:24;23.20;46.50
46932;DHT22;32670;51.464;11.964;2023-05-10T12:10:50;23.20;46.50
46932;DHT22;32670;51.464;11.964;2023-05-10T12:13:17;23.10;46.50
46932;DHT22;32670;51.464;11.964;2023-05-10T12:15:43;23.20;46.50
46932;DHT22;32670;51.464;11.964;2023-05-10T12:18:12;23.20;46.50
46932;DHT22;32670;51.464;11.964;2023-05-10T12:20:38;23.20;46.50
46932;DHT22;32670;51.464;11.964;2023-05-10T12:23:04;23.20;46.50
46932;DHT22;32670;51.464;11.964;2023-05-10T12:25:32;23.20;46.50
46932;DHT22;32670;51.464;11.964;2023-05-10T12:27:59;23.20;46.50
46932;DHT22;32670;51.464;11.964;2023-05-10T12:30:29;23.20;46.50
46932;DHT22;32670;51.464;11.964;2023-05-10T12:33:09;23.20;46.50
46932;DHT22;32670;51.464;11.964;2023-05-10T12:35:48;23.20;46.50
46932;DHT22;32670;51.464;11.964;2023-05-10T12:38:37;23.20;46.50
46932;DHT22;32670;51.464;11.964;2023-05-10T12:41:07;23.10;46.50
46932;DHT22;32670;51.464;11.964;2023-05-10T12:43:34;23.20;46.50
46932;DHT22;32670;51.464;11.964;2023-05-10T12:48:31;23.20;46.50
46932;DHT22;32670;51.464;11.964;2023-05-10T12:50:59;23.20;46.50
46932;DHT22;32670;51.464;11.964;2023-05-10T12:53:24;23.20;46.50
46932;DHT22;32670;51.464;11.964;2023-05-10T12:55:49;23.20;46.50
46932;DHT22;32670;51.464;11.964;2023-05-10T12:58:15;23.20;46.50
46932;DHT22;32670;51.464;11.964;2023-05-10T13:00:40;23.20;46.50
46932;DHT22;32670;51.464;11.964;2023-05-10T13:03:06;23.20;46.50
46932;DHT22;32670;51.464;11.964;2023-05-10T13:05:32;23.20;46.50
46932;DHT22;32670;51.464;11.964;2023-05-10T13:07:58;23.20;46.50
46932;DHT22;32670;51.464;11.964;2023-05-10T13:10:23;23.20;46.50
46932;DHT22;32670;51.464;11.964;2023-05-10T13:12:50;23.20;46.50
46932;DHT22;32670;51.464;11.964;2023-05-10T13:15:15;23.20;46.50
46932;DHT22;32670;51.464;11.964;2023-05-10T13:17:41;23.20;46.50
46932;DHT22;32670;51.464;11.964;2023-05-10T13:20:08;23.20;46.50
46932;DHT22;32670;51.464;11.964;2023-05-10T13:22:34;23.30;46.50
46932;DHT22;32670;51.464;11.964;2023-05-10T13:25:00;23.20;46.50
46932;DHT22;32670;51.464;11.964;2023-05-10T13:27:25;23.20;47.10
46932;DHT22;32670;51.464;11.964;2023-05-10T13:29:51;23.20;47.00
46932;DHT22;32670;51.464;11.964;2023-05-10T13:32:16;23.20;46.90
46932;DHT22;32670;51.464;11.964;2023-05-10T13:34:42;23.20;46.80
46932;DHT22;32670;51.464;11.964;2023-05-10T13:37:07;23.20;46.70
46932;DHT22;32670;51.464;11.964;2023-05-10T13:39:33;23.20;46.70
46932;DHT22;32670;51.464;11.964;2023-05-10T13:41:59;23.30;46.70
46932;DHT22;32670;51.464;11.964;2023-05-10T13:44:25;23.20;46.70
46932;DHT22;32670;51.464;11.964;2023-05-10T13:46:51;23.20;46.70
46932;DHT22;32670;51.464;11.964;2023-05-10T13:49:16;23.20;46.60
46932;DHT22;32670;51.464;11.964;2023-05-10T13:51:43;23.20;46.60
46932;DHT22;32670;51.464;11.964;2023-05-10T13:54:09;23.20;46.60
46932;DHT22;32670;51.464;11.964;2023-05-10T13:56:34;23.20;46.70
46932;DHT22;32670;51.464;11.964;2023-05-10T13:59:00;23.30;46.70
46932;DHT22;32670;51.464;11.964;2023-05-10T14:01:25;23.20;46.60
46932;DHT22;32670;51.464;11.964;2023-05-10T14:03:51;23.30;46.70
46932;DHT22;32670;51.464;11.964;2023-05-10T14:06:16;23.30;46.70
46932;DHT22;32670;51.464;11.964;2023-05-10T14:08:42;23.20;46.60
46932;DHT22;32670;51.464;11.964;2023-05-10T14:11:08;23.20;46.60
46932;DHT22;32670;51.464;11.964;2023-05-10T14:13:33;23.20;46.60
46932;DHT22;32670;51.464;11.964;2023-05-10T14:15:58;23.20;46.60
46932;DHT22;32670;51.464;11.964;2023-05-10T14:18:26;23.20;46.60
46932;DHT22;32670;51.464;11.964;2023-05-10T14:20:51;23.20;46.60
46932;DHT22;32670;51.464;11.964;2023-05-10T14:23:17;23.30;46.70
46932;DHT22;32670;51.464;11.964;2023-05-10T14:25:44;23.30;46.70
46932;DHT22;32670;51.464;11.964;2023-05-10T14:28:10;23.30;46.70
46932;DHT22;32670;51.464;11.964;2023-05-10T14:30:36;23.20;46.60
46932;DHT22;32670;51.464;11.964;2023-05-10T14:33:02;23.30;46.70
46932;DHT22;32670;51.464;11.964;2023-05-10T14:35:28;23.20;46.60
46932;DHT22;32670;51.464;11.964;2023-05-10T14:37:53;23.20;46.60
46932;DHT22;32670;51.464;11.964;2023-05-10T14:40:19;23.20;46.80
46932;DHT22;32670;51.464;11.964;2023-05-10T14:42:46;23.20;46.70
46932;DHT22;32670;51.464;11.964;2023-05-10T14:45:11;23.30;46.80
46932;DHT22;32670;51.464;11.964;2023-05-10T14:47:37;23.30;46.80
46932;DHT22;32670;51.464;11.964;2023-05-10T14:50:03;23.30;46.70
46932;DHT22;32670;51.464;11.964;2023-05-10T14:52:29;23.30;46.70
46932;DHT22;32670;51.464;11.964;2023-05-10T14:54:54;23.20;46.70
46932;DHT22;32670;51.464;11.964;2023-05-10T14:57:20;23.30;46.70
46932;DHT22;32670;51.464;11.964;2023-05-10T14:59:45;23.30;46.70
46932;DHT22;32670;51.464;11.964;2023-05-10T15:02:11;23.30;46.70
46932;DHT22;32670;51.464;11.964;2023-05-10T15:04:36;23.30;46.70
46932;DHT22;32670;51.464;11.964;2023-05-10T15:07:02;23.30;46.70
46932;DHT22;32670;51.464;11.964;2023-05-10T15:09:28;23.30;46.70
46932;DHT22;32670;51.464;11.964;2023-05-10T15:11:54;23.30;46.70
46932;DHT22;32670;51.464;11.964;2023-05-10T15:14:19;23.20;46.70
46932;DHT22;32670;51.464;11.964;2023-05-10T15:16:45;23.30;46.70
46932;DHT22;32670;51.464;11.964;2023-05-10T15:19:10;23.30;46.70
46932;DHT22;32670;51.464;11.964;2023-05-10T15:21:36;23.30;46.70
46932;DHT22;32670;51.464;11.964;2023-05-10T15:24:05;23.30;46.70
46932;DHT22;32670;51.464;11.964;2023-05-10T15:26:30;23.30;46.70
46932;DHT22;32670;51.464;11.964;2023-05-10T15:28:56;23.30;46.70
46932;DHT22;32670;51.464;11.964;2023-05-10T15:31:21;23.30;46.70
46932;DHT22;32670;51.464;11.964;2023-05-10T15:33:47;23.30;46.70
46932;DHT22;32670;51.464;11.964;2023-05-10T15:36:12;23.30;46.70